sensor_id;sensor_type;location;lat;lon;timestamp;pressure;altitude;pressure_sealevel;temperature
13497;BMP180;6820;49.374;8.452;2022-08-18T00:00:52;100101.03;;;30.15
13497;BMP180;6820;49.374;8.452;2022-08-18T00:04:56;100109.25;;;29.99
13497;BMP180;6820;49.374;8.452;2022-08-18T00:09:04;100108.63;;;29.88
13497;BMP180;6820;49.374;8.452;2022-08-18T00:13:09;100099.38;;;29.73
13497;BMP180;6820;49.374;8.452;2022-08-18T00:17:15;100090.00;;;29.60
13497;BMP180;6820;49.374;8.452;2022-08-18T00:21:28;100087.47;;;29.55
13497;BMP180;6820;49.374;8.452;2022-08-18T00:25:35;100078.16;;;29.42
13497;BMP180;6820;49.374;8.452;2022-08-18T00:29:37;100082.63;;;29.36
13497;BMP180;6820;49.374;8.452;2022-08-18T00:33:39;100086.09;;;29.38
13497;BMP180;6820;49.374;8.452;2022-08-18T00:37:48;100085.06;;;29.45
13497;BMP180;6820;49.374;8.452;2022-08-18T00:41:52;100089.25;;;29.53
13497;BMP180;6820;49.374;8.452;2022-08-18T00:46:00;100096.22;;;29.54
13497;BMP180;6820;49.374;8.452;2022-08-18T00:50:03;100112.75;;;29.53
13497;BMP180;6820;49.374;8.452;2022-08-18T00:54:19;100124.03;;;29.57
13497;BMP180;6820;49.374;8.452;2022-08-18T00:58:33;100128.41;;;29.56
13497;BMP180;6820;49.374;8.452;2022-08-18T01:02:45;100128.41;;;29.55
13497;BMP180;6820;49.374;8.452;2022-08-18T01:06:55;100133.72;;;29.50
13497;BMP180;6820;49.374;8.452;2022-08-18T01:11:04;100147.59;;;29.52
13497;BMP180;6820;49.374;8.452;2022-08-18T01:15:17;100149.44;;;29.49
13497;BMP180;6820;49.374;8.452;2022-08-18T01:19:34;100155.63;;;29.43
13497;BMP180;6820;49.374;8.452;2022-08-18T01:24:16;100152.34;;;29.33
13497;BMP180;6820;49.374;8.452;2022-08-18T01:28:22;100147.13;;;29.31
13497;BMP180;6820;49.374;8.452;2022-08-18T01:32:26;100138.47;;;29.29
13497;BMP180;6820;49.374;8.452;2022-08-18T01:36:33;100136.81;;;29.24
13497;BMP180;6820;49.374;8.452;2022-08-18T01:40:46;100136.00;;;29.22
13497;BMP180;6820;49.374;8.452;2022-08-18T01:45:15;100125.63;;;29.17
13497;BMP180;6820;49.374;8.452;2022-08-18T01:49:21;100126.47;;;29.19
13497;BMP180;6820;49.374;8.452;2022-08-18T01:53:26;100122.13;;;29.20
13497;BMP180;6820;49.374;8.452;2022-08-18T01:57:32;100118.59;;;29.21
13497;BMP180;6820;49.374;8.452;2022-08-18T02:01:45;100110.03;;;29.14
13497;BMP180;6820;49.374;8.452;2022-08-18T02:06:01;100115.25;;;29.13
13497;BMP180;6820;49.374;8.452;2022-08-18T02:10:05;100113.59;;;29.09
13497;BMP180;6820;49.374;8.452;2022-08-18T02:14:17;100111.16;;;28.97
13497;BMP180;6820;49.374;8.452;2022-08-18T02:18:34;100108.59;;;28.96
13497;BMP180;6820;49.374;8.452;2022-08-18T02:22:52;100109.50;;;28.93
13497;BMP180;6820;49.374;8.452;2022-08-18T02:26:57;100111.31;;;28.88
13497;BMP180;6820;49.374;8.452;2022-08-18T02:31:08;100105.25;;;28.86
13497;BMP180;6820;49.374;8.452;2022-08-18T02:35:19;100112.25;;;28.84
13497;BMP180;6820;49.374;8.452;2022-08-18T02:39:23;100107.16;;;28.77
13497;BMP180;6820;49.374;8.452;2022-08-18T02:43:26;100105.47;;;28.75
13497;BMP180;6820;49.374;8.452;2022-08-18T02:47:29;100103.69;;;28.77
13497;BMP180;6820;49.374;8.452;2022-08-18T02:51:34;100111.59;;;28.74
13497;BMP180;6820;49.374;8.452;2022-08-18T02:55:41;100107.22;;;28.74
13497;BMP180;6820;49.374;8.452;2022-08-18T02:59:46;100101.94;;;28.77
13497;BMP180;6820;49.374;8.452;2022-08-18T03:03:53;100097.63;;;28.75
13497;BMP180;6820;49.374;8.452;2022-08-18T03:07:56;100096.75;;;28.76
13497;BMP180;6820;49.374;8.452;2022-08-18T03:12:03;100097.63;;;28.75
13497;BMP180;6820;49.374;8.452;2022-08-18T03:16:06;100094.13;;;28.76
13497;BMP180;6820;49.374;8.452;2022-08-18T03:20:10;100090.66;;;28.77
13497;BMP180;6820;49.374;8.452;2022-08-18T03:24:14;100100.22;;;28.76
13497;BMP180;6820;49.374;8.452;2022-08-18T03:28:23;100094.19;;;28.73
13497;BMP180;6820;49.374;8.452;2022-08-18T03:32:25;100093.34;;;28.71
13497;BMP180;6820;49.374;8.452;2022-08-18T03:36:30;100085.63;;;28.66
13497;BMP180;6820;49.374;8.452;2022-08-18T03:40:35;100083.84;;;28.68
13497;BMP180;6820;49.374;8.452;2022-08-18T03:44:43;100077.72;;;28.69
13497;BMP180;6820;49.374;8.452;2022-08-18T03:48:48;100083.91;;;28.64
13497;BMP180;6820;49.374;8.452;2022-08-18T03:52:55;100084.75;;;28.66
13497;BMP180;6820;49.374;8.452;2022-08-18T03:57:13;100080.41;;;28.66
13497;BMP180;6820;49.374;8.452;2022-08-18T04:01:17;100063.00;;;28.67
13497;BMP180;6820;49.374;8.452;2022-08-18T04:05:28;100060.44;;;28.62
13497;BMP180;6820;49.374;8.452;2022-08-18T04:09:31;100058.84;;;28.55
13497;BMP180;6820;49.374;8.452;2022-08-18T04:13:33;100065.91;;;28.46
13497;BMP180;6820;49.374;8.452;2022-08-18T04:17:37;100066.06;;;28.36
13497;BMP180;6820;49.374;8.452;2022-08-18T04:22:00;100066.09;;;28.34
13497;BMP180;6820;49.374;8.452;2022-08-18T04:26:04;100069.59;;;28.32
13497;BMP180;6820;49.374;8.452;2022-08-18T04:30:07;100073.91;;;28.34
13497;BMP180;6820;49.374;8.452;2022-08-18T04:34:09;100086.91;;;28.37
13497;BMP180;6820;49.374;8.452;2022-08-18T04:38:12;100095.63;;;28.35
13497;BMP180;6820;49.374;8.452;2022-08-18T04:42:14;100106.06;;;28.33
13497;BMP180;6820;49.374;8.452;2022-08-18T04:46:16;100091.31;;;28.34
13497;BMP180;6820;49.374;8.452;2022-08-18T04:50:18;100101.75;;;28.32
13497;BMP180;6820;49.374;8.452;2022-08-18T04:54:22;100107.00;;;28.31
13497;BMP180;6820;49.374;8.452;2022-08-18T04:58:25;100110.50;;;28.28
13497;BMP180;6820;49.374;8.452;2022-08-18T05:02:26;100110.66;;;28.17
13497;BMP180;6820;49.374;8.452;2022-08-18T05:06:29;100126.34;;;28.15
13497;BMP180;6820;49.374;8.452;2022-08-18T05:10:31;100128.06;;;28.15
13497;BMP180;6820;49.374;8.452;2022-08-18T05:14:33;100127.19;;;28.16
13497;BMP180;6820;49.374;8.452;2022-08-18T05:18:36;100136.81;;;28.12
13497;BMP180;6820;49.374;8.452;2022-08-18T05:22:43;100137.56;;;28.18
13497;BMP180;6820;49.374;8.452;2022-08-18T05:26:47;100142.75;;;28.21
13497;BMP180;6820;49.374;8.452;2022-08-18T05:30:49;100140.13;;;28.21
13497;BMP180;6820;49.374;8.452;2022-08-18T05:34:50;100136.66;;;28.19
13497;BMP180;6820;49.374;8.452;2022-08-18T05:39:09;100147.13;;;28.18
13497;BMP180;6820;49.374;8.452;2022-08-18T05:43:15;100140.22;;;28.14
13497;BMP180;6820;49.374;8.452;2022-08-18T05:51:30;100116.38;;;27.75
13497;BMP180;6820;49.374;8.452;2022-08-18T06:00:07;100093.00;;;27.72
13497;BMP180;6820;49.374;8.452;2022-08-18T06:04:45;100094.34;;;28.01
13497;BMP180;6820;49.374;8.452;2022-08-18T06:13:16;100080.09;;;28.29
13497;BMP180;6820;49.374;8.452;2022-08-18T06:17:34;100083.28;;;28.50
13497;BMP180;6820;49.374;8.452;2022-08-18T06:21:44;100099.66;;;28.58
13497;BMP180;6820;49.374;8.452;2022-08-18T06:26:13;100113.22;;;28.79
13497;BMP180;6820;49.374;8.452;2022-08-18T06:30:17;100128.34;;;29.11
13497;BMP180;6820;49.374;8.452;2022-08-18T06:38:50;100115.53;;;29.46
13497;BMP180;6820;49.374;8.452;2022-08-18T06:42:53;100116.75;;;29.72
13497;BMP180;6820;49.374;8.452;2022-08-18T06:47:03;100131.16;;;29.92
13497;BMP180;6820;49.374;8.452;2022-08-18T06:51:07;100148.19;;;30.11
13497;BMP180;6820;49.374;8.452;2022-08-18T06:55:15;100150.81;;;30.11
13497;BMP180;6820;49.374;8.452;2022-08-18T06:59:31;100155.34;;;30.03
13497;BMP180;6820;49.374;8.452;2022-08-18T07:07:40;100147.97;;;29.81
13497;BMP180;6820;49.374;8.452;2022-08-18T07:11:58;100149.78;;;29.76
13497;BMP180;6820;49.374;8.452;2022-08-18T07:16:29;100145.56;;;29.69
13497;BMP180;6820;49.374;8.452;2022-08-18T07:20:55;100140.53;;;29.59
13497;BMP180;6820;49.374;8.452;2022-08-18T07:24:59;100134.50;;;29.55
13497;BMP180;6820;49.374;8.452;2022-08-18T07:29:14;100148.25;;;29.66
13497;BMP180;6820;49.374;8.452;2022-08-18T07:33:20;100152.47;;;29.73
13497;BMP180;6820;49.374;8.452;2022-08-18T07:37:27;100156.72;;;29.77
13497;BMP180;6820;49.374;8.452;2022-08-18T07:41:37;100154.84;;;29.85
13497;BMP180;6820;49.374;8.452;2022-08-18T07:45:43;100159.84;;;29.97
13497;BMP180;6820;49.374;8.452;2022-08-18T07:49:46;100160.56;;;30.03
13497;BMP180;6820;49.374;8.452;2022-08-18T07:58:52;100153.50;;;30.06
13497;BMP180;6820;49.374;8.452;2022-08-18T08:03:10;100151.41;;;29.83
13497;BMP180;6820;49.374;8.452;2022-08-18T08:11:59;100161.59;;;29.95
13497;BMP180;6820;49.374;8.452;2022-08-18T08:16:11;100170.44;;;29.88
13497;BMP180;6820;49.374;8.452;2022-08-18T08:24:36;100177.75;;;29.71
13497;BMP180;6820;49.374;8.452;2022-08-18T08:33:26;100184.97;;;29.57
13497;BMP180;6820;49.374;8.452;2022-08-18T08:37:41;100183.34;;;29.50
13497;BMP180;6820;49.374;8.452;2022-08-18T08:41:56;100190.41;;;29.45
13497;BMP180;6820;49.374;8.452;2022-08-18T08:46:22;100187.88;;;29.40
13497;BMP180;6820;49.374;8.452;2022-08-18T08:50:28;100199.16;;;29.41
13497;BMP180;6820;49.374;8.452;2022-08-18T08:55:26;100213.06;;;29.43
13497;BMP180;6820;49.374;8.452;2022-08-18T08:59:05;100219.22;;;29.41
13497;BMP180;6820;49.374;8.452;2022-08-18T09:07:49;100235.09;;;29.26
13497;BMP180;6820;49.374;8.452;2022-08-18T09:12:07;100231.69;;;29.24
13497;BMP180;6820;49.374;8.452;2022-08-18T09:16:47;100234.25;;;29.27
13497;BMP180;6820;49.374;8.452;2022-08-18T09:24:58;100240.22;;;29.34
13497;BMP180;6820;49.374;8.452;2022-08-18T09:29:14;100235.84;;;29.36
13497;BMP180;6820;49.374;8.452;2022-08-18T09:41:50;100210.81;;;29.24
13497;BMP180;6820;49.374;8.452;2022-08-18T09:45:57;100187.00;;;29.41
13497;BMP180;6820;49.374;8.452;2022-08-18T09:54:49;100172.91;;;29.95
13497;BMP180;6820;49.374;8.452;2022-08-18T09:58:57;100169.16;;;30.50
13497;BMP180;6820;49.374;8.452;2022-08-18T10:03:09;100163.03;;;30.88
13497;BMP180;6820;49.374;8.452;2022-08-18T10:07:26;100171.84;;;31.20
13497;BMP180;6820;49.374;8.452;2022-08-18T10:11:47;100177.78;;;31.27
13497;BMP180;6820;49.374;8.452;2022-08-18T10:20:39;100184.69;;;31.30
13497;BMP180;6820;49.374;8.452;2022-08-18T10:24:53;100192.94;;;31.14
13497;BMP180;6820;49.374;8.452;2022-08-18T10:33:00;100196.72;;;30.64
13497;BMP180;6820;49.374;8.452;2022-08-18T10:37:37;100198.16;;;30.78
13497;BMP180;6820;49.374;8.452;2022-08-18T10:41:59;100201.75;;;30.74
13497;BMP180;6820;49.374;8.452;2022-08-18T10:46:02;100185.06;;;30.78
13497;BMP180;6820;49.374;8.452;2022-08-18T10:50:25;100159.41;;;30.94
13497;BMP180;6820;49.374;8.452;2022-08-18T10:55:19;100142.34;;;31.14
13497;BMP180;6820;49.374;8.452;2022-08-18T11:04:04;100126.50;;;31.51
13497;BMP180;6820;49.374;8.452;2022-08-18T11:08:28;100115.28;;;32.08
13497;BMP180;6820;49.374;8.452;2022-08-18T11:17:23;100099.91;;;32.24
13497;BMP180;6820;49.374;8.452;2022-08-18T11:21:41;100097.31;;;31.94
13497;BMP180;6820;49.374;8.452;2022-08-18T11:25:45;100108.09;;;31.86
13497;BMP180;6820;49.374;8.452;2022-08-18T11:29:49;100111.72;;;31.49
13497;BMP180;6820;49.374;8.452;2022-08-18T11:33:52;100111.06;;;31.41
13497;BMP180;6820;49.374;8.452;2022-08-18T11:41:57;100116.06;;;31.81
13497;BMP180;6820;49.374;8.452;2022-08-18T11:46:01;100111.75;;;31.80
13497;BMP180;6820;49.374;8.452;2022-08-18T11:50:12;100108.53;;;31.69
13497;BMP180;6820;49.374;8.452;2022-08-18T11:54:18;100097.25;;;31.96
13497;BMP180;6820;49.374;8.452;2022-08-18T12:03:03;100100.44;;;32.35
13497;BMP180;6820;49.374;8.452;2022-08-18T12:07:07;100105.56;;;32.40
13497;BMP180;6820;49.374;8.452;2022-08-18T12:11:16;100091.28;;;32.50
13497;BMP180;6820;49.374;8.452;2022-08-18T12:15:33;100090.53;;;32.45
13497;BMP180;6820;49.374;8.452;2022-08-18T12:19:48;100072.06;;;32.48
13497;BMP180;6820;49.374;8.452;2022-08-18T12:23:52;100068.19;;;32.86
13497;BMP180;6820;49.374;8.452;2022-08-18T12:27:53;100070.59;;;32.92
13497;BMP180;6820;49.374;8.452;2022-08-18T12:31:55;100065.19;;;32.96
13497;BMP180;6820;49.374;8.452;2022-08-18T12:35:57;100053.97;;;33.17
13497;BMP180;6820;49.374;8.452;2022-08-18T12:40:00;100046.00;;;33.18
13497;BMP180;6820;49.374;8.452;2022-08-18T12:44:02;100049.16;;;33.29
13497;BMP180;6820;49.374;8.452;2022-08-18T12:48:10;100049.44;;;33.20
13497;BMP180;6820;49.374;8.452;2022-08-18T12:52:12;100048.59;;;32.96
13497;BMP180;6820;49.374;8.452;2022-08-18T12:56:22;100039.16;;;32.90
13497;BMP180;6820;49.374;8.452;2022-08-18T13:00:25;100038.81;;;32.99
13497;BMP180;6820;49.374;8.452;2022-08-18T13:04:28;100028.41;;;32.98
13497;BMP180;6820;49.374;8.452;2022-08-18T13:08:31;100020.03;;;33.11
13497;BMP180;6820;49.374;8.452;2022-08-18T13:12:48;100010.97;;;33.66
13497;BMP180;6820;49.374;8.452;2022-08-18T13:16:50;100006.84;;;33.83
13497;BMP180;6820;49.374;8.452;2022-08-18T13:20:56;99998.56;;;34.15
13497;BMP180;6820;49.374;8.452;2022-08-18T13:25:03;99989.75;;;34.37
13497;BMP180;6820;49.374;8.452;2022-08-18T13:29:06;100000.34;;;34.36
13497;BMP180;6820;49.374;8.452;2022-08-18T13:33:10;99998.56;;;34.15
13497;BMP180;6820;49.374;8.452;2022-08-18T13:37:32;99990.16;;;34.06
13497;BMP180;6820;49.374;8.452;2022-08-18T13:41:34;99987.34;;;33.89
13497;BMP180;6820;49.374;8.452;2022-08-18T13:45:36;99979.63;;;33.62
13497;BMP180;6820;49.374;8.452;2022-08-18T13:49:40;99974.47;;;33.36
13497;BMP180;6820;49.374;8.452;2022-08-18T13:53:59;99962.28;;;33.34
13497;BMP180;6820;49.374;8.452;2022-08-18T13:58:20;99956.78;;;33.17
13497;BMP180;6820;49.374;8.452;2022-08-18T14:02:22;99957.31;;;33.26
13497;BMP180;6820;49.374;8.452;2022-08-18T14:06:27;99954.31;;;33.59
13497;BMP180;6820;49.374;8.452;2022-08-18T14:10:33;99949.91;;;33.60
13497;BMP180;6820;49.374;8.452;2022-08-18T14:14:36;99940.41;;;33.78
13497;BMP180;6820;49.374;8.452;2022-08-18T14:18:37;99938.09;;;33.92
13497;BMP180;6820;49.374;8.452;2022-08-18T14:22:39;99939.19;;;34.08
13497;BMP180;6820;49.374;8.452;2022-08-18T14:27:00;99942.22;;;33.99
13497;BMP180;6820;49.374;8.452;2022-08-18T14:31:02;99940.56;;;34.18
13497;BMP180;6820;49.374;8.452;2022-08-18T14:35:09;99939.19;;;34.08
13497;BMP180;6820;49.374;8.452;2022-08-18T14:39:31;99939.59;;;33.99
13497;BMP180;6820;49.374;8.452;2022-08-18T14:43:33;99956.69;;;34.09
13497;BMP180;6820;49.374;8.452;2022-08-18T14:47:56;99949.91;;;34.25
13497;BMP180;6820;49.374;8.452;2022-08-18T14:51:59;99943.88;;;34.23
13497;BMP180;6820;49.374;8.452;2022-08-18T14:56:03;99944.88;;;34.20
13497;BMP180;6820;49.374;8.452;2022-08-18T15:00:08;99955.38;;;34.20
13497;BMP180;6820;49.374;8.452;2022-08-18T15:04:13;99949.34;;;34.17
13497;BMP180;6820;49.374;8.452;2022-08-18T15:08:20;99955.25;;;34.44
13497;BMP180;6820;49.374;8.452;2022-08-18T15:12:27;99965.00;;;34.41
13497;BMP180;6820;49.374;8.452;2022-08-18T15:16:30;99971.38;;;34.14
13497;BMP180;6820;49.374;8.452;2022-08-18T15:20:39;99969.97;;;34.06
13497;BMP180;6820;49.374;8.452;2022-08-18T15:25:00;99970.63;;;34.11
13497;BMP180;6820;49.374;8.452;2022-08-18T15:29:25;99960.41;;;34.04
13497;BMP180;6820;49.374;8.452;2022-08-18T15:33:30;99958.03;;;34.20
13497;BMP180;6820;49.374;8.452;2022-08-18T15:37:36;99963.84;;;34.28
13497;BMP180;6820;49.374;8.452;2022-08-18T15:41:45;99973.41;;;34.08
13497;BMP180;6820;49.374;8.452;2022-08-18T15:45:49;99972.16;;;33.95
13497;BMP180;6820;49.374;8.452;2022-08-18T15:49:58;99972.38;;;33.91
13497;BMP180;6820;49.374;8.452;2022-08-18T15:54:08;99966.91;;;33.95
13497;BMP180;6820;49.374;8.452;2022-08-18T15:58:12;99965.88;;;33.99
13497;BMP180;6820;49.374;8.452;2022-08-18T16:02:18;99971.25;;;33.96
13497;BMP180;6820;49.374;8.452;2022-08-18T16:06:22;99972.72;;;34.03
13497;BMP180;6820;49.374;8.452;2022-08-18T16:10:34;99969.97;;;34.06
13497;BMP180;6820;49.374;8.452;2022-08-18T16:14:40;99968.69;;;34.16
13497;BMP180;6820;49.374;8.452;2022-08-18T16:18:42;99965.00;;;34.20
13497;BMP180;6820;49.374;8.452;2022-08-18T16:22:46;99960.09;;;33.90
13497;BMP180;6820;49.374;8.452;2022-08-18T16:26:48;99972.31;;;33.70
13497;BMP180;6820;49.374;8.452;2022-08-18T16:30:52;99970.69;;;33.66
13497;BMP180;6820;49.374;8.452;2022-08-18T16:34:55;99974.56;;;33.56
13497;BMP180;6820;49.374;8.452;2022-08-18T16:38:57;99961.91;;;33.44
13497;BMP180;6820;49.374;8.452;2022-08-18T16:42:59;99954.25;;;33.38
13497;BMP180;6820;49.374;8.452;2022-08-18T16:47:06;99958.78;;;33.35
13497;BMP180;6820;49.374;8.452;2022-08-18T16:51:11;99963.38;;;33.28
13497;BMP180;6820;49.374;8.452;2022-08-18T16:55:13;99947.84;;;33.21
13497;BMP180;6820;49.374;8.452;2022-08-18T16:59:15;99950.34;;;33.01
13497;BMP180;6820;49.374;8.452;2022-08-18T17:03:35;99944.00;;;32.84
13497;BMP180;6820;49.374;8.452;2022-08-18T17:07:55;99941.72;;;32.74
13497;BMP180;6820;49.374;8.452;2022-08-18T17:11:57;99944.31;;;32.75
13497;BMP180;6820;49.374;8.452;2022-08-18T17:15:59;99941.88;;;32.69
13497;BMP180;6820;49.374;8.452;2022-08-18T17:20:01;99936.75;;;32.65
13497;BMP180;6820;49.374;8.452;2022-08-18T17:24:11;99935.81;;;32.67
13497;BMP180;6820;49.374;8.452;2022-08-18T17:28:14;99930.56;;;32.67
13497;BMP180;6820;49.374;8.452;2022-08-18T17:36:49;99934.78;;;32.47
13497;BMP180;6820;49.374;8.452;2022-08-18T17:40:55;99934.19;;;32.39
13497;BMP180;6820;49.374;8.452;2022-08-18T17:45:04;99930.84;;;32.34
13497;BMP180;6820;49.374;8.452;2022-08-18T17:49:12;99936.84;;;32.38
13497;BMP180;6820;49.374;8.452;2022-08-18T17:53:15;99935.28;;;32.32
13497;BMP180;6820;49.374;8.452;2022-08-18T17:57:27;99937.16;;;32.29
13497;BMP180;6820;49.374;8.452;2022-08-18T18:01:30;99937.56;;;32.16
13497;BMP180;6820;49.374;8.452;2022-08-18T18:05:42;99941.47;;;32.04
13497;BMP180;6820;49.374;8.452;2022-08-18T18:09:52;99946.34;;;31.88
13497;BMP180;6820;49.374;8.452;2022-08-18T18:13:54;99947.59;;;31.76
13497;BMP180;6820;49.374;8.452;2022-08-18T18:17:56;99955.00;;;31.62
13497;BMP180;6820;49.374;8.452;2022-08-18T18:22:20;99950.25;;;31.46
13497;BMP180;6820;49.374;8.452;2022-08-18T18:30:31;99951.78;;;31.25
13497;BMP180;6820;49.374;8.452;2022-08-18T18:34:36;99953.81;;;31.14
13497;BMP180;6820;49.374;8.452;2022-08-18T18:38:41;99965.34;;;31.07
13497;BMP180;6820;49.374;8.452;2022-08-18T18:42:49;99961.97;;;31.02
13497;BMP180;6820;49.374;8.452;2022-08-18T18:51:04;99970.00;;;30.96
13497;BMP180;6820;49.374;8.452;2022-08-18T18:55:20;99975.41;;;30.90
13497;BMP180;6820;49.374;8.452;2022-08-18T19:03:52;99984.47;;;30.79
13497;BMP180;6820;49.374;8.452;2022-08-18T19:12:23;99993.47;;;30.66
13497;BMP180;6820;49.374;8.452;2022-08-18T19:16:33;100003.22;;;30.60
13497;BMP180;6820;49.374;8.452;2022-08-18T19:20:40;100000.75;;;30.55
13497;BMP180;6820;49.374;8.452;2022-08-18T19:25:13;100004.22;;;30.54
13497;BMP180;6820;49.374;8.452;2022-08-18T19:29:22;100013.81;;;30.55
13497;BMP180;6820;49.374;8.452;2022-08-18T19:33:44;100016.53;;;30.52
13497;BMP180;6820;49.374;8.452;2022-08-18T19:38:00;100012.31;;;30.45
13497;BMP180;6820;49.374;8.452;2022-08-18T19:42:50;100011.75;;;30.33
13497;BMP180;6820;49.374;8.452;2022-08-18T19:46:53;100006.66;;;30.27
13497;BMP180;6820;49.374;8.452;2022-08-18T19:51:22;100000.88;;;30.13
13497;BMP180;6820;49.374;8.452;2022-08-18T19:55:39;99997.56;;;30.05
13497;BMP180;6820;49.374;8.452;2022-08-18T20:00:05;100013.47;;;29.97
13497;BMP180;6820;49.374;8.452;2022-08-18T20:08:45;100011.81;;;29.93
13497;BMP180;6820;49.374;8.452;2022-08-18T20:12:58;100008.31;;;29.94
13497;BMP180;6820;49.374;8.452;2022-08-18T20:17:10;100007.56;;;29.87
13497;BMP180;6820;49.374;8.452;2022-08-18T20:29:38;100008.84;;;29.70
13497;BMP180;6820;49.374;8.452;2022-08-18T20:33:43;100016.03;;;29.59
13497;BMP180;6820;49.374;8.452;2022-08-18T20:37:47;100024.94;;;29.49
13497;BMP180;6820;49.374;8.452;2022-08-18T20:41:48;100026.75;;;29.46
13497;BMP180;6820;49.374;8.452;2022-08-18T20:45:58;100031.13;;;29.44
13497;BMP180;6820;49.374;8.452;2022-08-18T20:55:01;100050.41;;;29.37
13497;BMP180;6820;49.374;8.452;2022-08-18T20:59:18;100059.13;;;29.36
13497;BMP180;6820;49.374;8.452;2022-08-18T21:03:20;100049.63;;;29.34
13497;BMP180;6820;49.374;8.452;2022-08-18T21:07:29;100044.63;;;29.22
13497;BMP180;6820;49.374;8.452;2022-08-18T21:11:41;100039.56;;;29.14
13497;BMP180;6820;49.374;8.452;2022-08-18T21:15:43;100035.31;;;29.08
13497;BMP180;6820;49.374;8.452;2022-08-18T21:19:45;100032.78;;;29.03
13497;BMP180;6820;49.374;8.452;2022-08-18T21:23:53;100026.91;;;28.92
13497;BMP180;6820;49.374;8.452;2022-08-18T21:27:55;100035.72;;;28.85
13497;BMP180;6820;49.374;8.452;2022-08-18T21:32:12;100038.38;;;28.82
13497;BMP180;6820;49.374;8.452;2022-08-18T21:36:18;100046.28;;;28.78
13497;BMP180;6820;49.374;8.452;2022-08-18T21:40:28;100049.91;;;28.70
13497;BMP180;6820;49.374;8.452;2022-08-18T21:44:40;100054.94;;;28.80
13497;BMP180;6820;49.374;8.452;2022-08-18T21:48:47;100051.34;;;28.87
13497;BMP180;6820;49.374;8.452;2022-08-18T21:52:58;100066.03;;;28.92
13497;BMP180;6820;49.374;8.452;2022-08-18T22:01:26;100070.31;;;28.96
13497;BMP180;6820;49.374;8.452;2022-08-18T22:05:31;100078.06;;;29.01
13497;BMP180;6820;49.374;8.452;2022-08-18T22:10:03;100085.09;;;28.96
13497;BMP180;6820;49.374;8.452;2022-08-18T22:14:44;100092.19;;;28.88
13497;BMP180;6820;49.374;8.452;2022-08-18T22:23:22;100089.06;;;28.68
13497;BMP180;6820;49.374;8.452;2022-08-18T22:27:48;100083.84;;;28.67
13497;BMP180;6820;49.374;8.452;2022-08-18T22:31:51;100077.91;;;28.59
13497;BMP180;6820;49.374;8.452;2022-08-18T22:35:54;100086.69;;;28.52
13497;BMP180;6820;49.374;8.452;2022-08-18T22:40:05;100081.59;;;28.45
13497;BMP180;6820;49.374;8.452;2022-08-18T22:44:10;100080.66;;;28.50
13497;BMP180;6820;49.374;8.452;2022-08-18T22:48:12;100085.00;;;28.48
13497;BMP180;6820;49.374;8.452;2022-08-18T22:52:23;100085.00;;;28.47
13497;BMP180;6820;49.374;8.452;2022-08-18T22:56:30;100085.03;;;28.45
13497;BMP180;6820;49.374;8.452;2022-08-18T23:00:36;100081.59;;;28.43
13497;BMP180;6820;49.374;8.452;2022-08-18T23:04:39;100086.84;;;28.42
13497;BMP180;6820;49.374;8.452;2022-08-18T23:08:41;100079.88;;;28.42
13497;BMP180;6820;49.374;8.452;2022-08-18T23:12:56;100086.81;;;28.43
13497;BMP180;6820;49.374;8.452;2022-08-18T23:17:04;100097.13;;;28.49
13497;BMP180;6820;49.374;8.452;2022-08-18T23:21:07;100099.78;;;28.48
13497;BMP180;6820;49.374;8.452;2022-08-18T23:25:08;100101.53;;;28.50
13497;BMP180;6820;49.374;8.452;2022-08-18T23:29:11;100103.25;;;28.49
13497;BMP180;6820;49.374;8.452;2022-08-18T23:33:16;100100.56;;;28.55
13497;BMP180;6820;49.374;8.452;2022-08-18T23:37:19;100112.72;;;28.56
13497;BMP180;6820;49.374;8.452;2022-08-18T23:41:22;100103.97;;;28.60
13497;BMP180;6820;49.374;8.452;2022-08-18T23:45:24;100098.75;;;28.60
13497;BMP180;6820;49.374;8.452;2022-08-18T23:49:27;100104.72;;;28.65
13497;BMP180;6820;49.374;8.452;2022-08-18T23:53:30;100107.28;;;28.70
13497;BMP180;6820;49.374;8.452;2022-08-18T23:57:31;100110.84;;;28.66
